»·PEaware :: N9401L KSBP-KSBA

N9401L :: KSBP-KSBA

FLIGHT INFORMATION

Flight Status: Arrived
Operator: Privately registered:
United States
More flights under this callsign
Pilot: Juan D. (11620)
Aircraft: Unknown
(P28U)
More flights by this aircraft type
Origin: KSBP San Luis Co Regl
United States
Destination: KSBA Santa Barbara Mun
United States
More flights between these airports :: More routes between these airports
Route: GVO HABUT
File this flight plan on PilotEdge
Remarks:
Altitude:
(Current/Filed)
5,000ft
Speed:
(Current/Filed)
160kts
Departed: 15-Mar-20 01:55 PM
Arrived: 15-Mar-20 02:32 PM
Distance/Time
Traveled:
62nm/0:37
Distance/Time
To Go:
Arrived

Flight Plot

Page will automatically refresh every two minutes.


Map Options




Map Legend


Flown Route
Filed Route
Departure Airport
Arrival Airport
Navaid (VOR, NDB)
Fix

Horizontal Profiles

Position Reports

Time Latitude Longitude Heading Altitude Ground
Speed
15-Mar-20 13:43 35.237564 -120.636685 309 215ft 0kts
15-Mar-20 13:44 35.237564 -120.636685 309 215ft 0kts
15-Mar-20 13:45 35.237564 -120.636685 309 215ft 0kts
15-Mar-20 13:46 35.237564 -120.636685 309 215ft 0kts
15-Mar-20 13:47 35.237564 -120.636685 309 215ft 0kts
15-Mar-20 13:48 35.237564 -120.636685 309 215ft 0kts
15-Mar-20 13:49 35.237588 -120.636862 245 215ft 14kts
15-Mar-20 13:50 35.240534 -120.644746 302 215ft 31kts
15-Mar-20 13:51 35.242686 -120.648940 247 215ft 0kts
15-Mar-20 13:52 35.242686 -120.648940 247 215ft 0kts
15-Mar-20 13:53 35.242686 -120.648940 247 215ft 0kts
15-Mar-20 13:54 35.237869 -120.641938 125 359ft 80kts
15-Mar-20 13:55 35.219113 -120.641595 191 1604ft 76kts
15-Mar-20 13:56 35.199531 -120.647213 191 2827ft 75kts
15-Mar-20 13:57 35.180039 -120.652509 191 3978ft 74kts
15-Mar-20 13:58 35.160891 -120.657293 191 5107ft 73kts
15-Mar-20 13:59 35.130923 -120.664707 192 5041ft 129kts
15-Mar-20 14:00 35.095331 -120.673399 189 5040ft 133kts
15-Mar-20 14:01 35.065096 -120.646284 141 5039ft 134kts
15-Mar-20 14:02 35.039616 -120.617220 143 5040ft 132kts
15-Mar-20 14:03 35.011219 -120.587283 144 5043ft 133kts
15-Mar-20 14:04 34.985482 -120.560493 146 5045ft 135kts
15-Mar-20 14:05 34.959693 -120.533724 146 5046ft 136kts
15-Mar-20 14:06 34.933534 -120.506112 146 5047ft 137kts
15-Mar-20 14:07 34.904986 -120.475561 145 5046ft 137kts
15-Mar-20 14:08 34.876760 -120.444954 145 5051ft 138kts
15-Mar-20 14:09 34.850031 -120.415880 147 5053ft 139kts
15-Mar-20 14:10 34.817289 -120.382083 147 5055ft 140kts
15-Mar-20 14:11 34.787335 -120.350930 147 5056ft 140kts
15-Mar-20 14:12 34.760967 -120.323306 147 5053ft 138kts
15-Mar-20 14:13 34.735508 -120.296592 147 5053ft 137kts
15-Mar-20 14:14 34.710035 -120.270274 147 5052ft 135kts
15-Mar-20 14:15 34.684513 -120.243816 146 5052ft 133kts
15-Mar-20 14:16 34.659693 -120.218378 147 5049ft 132kts
15-Mar-20 14:17 34.635456 -120.193280 147 5048ft 132kts
15-Mar-20 14:18 34.611423 -120.168377 147 5046ft 132kts
15-Mar-20 14:19 34.587421 -120.143226 147 5047ft 132kts
15-Mar-20 14:20 34.562502 -120.117150 147 5050ft 132kts
15-Mar-20 14:21 34.535089 -120.091830 173 5044ft 125kts
15-Mar-20 14:22 34.503351 -120.090493 182 5051ft 123kts
15-Mar-20 14:23 34.471414 -120.090770 180 5054ft 124kts
15-Mar-20 14:24 34.436587 -120.089857 176 5054ft 124kts
15-Mar-20 14:25 34.429478 -120.046184 96 4518ft 143kts
15-Mar-20 14:26 34.429753 -119.999349 96 3566ft 137kts
15-Mar-20 14:27 34.429246 -119.954133 96 2911ft 124kts
15-Mar-20 14:28 34.428268 -119.909246 96 2398ft 122kts
15-Mar-20 14:29 34.427231 -119.881950 96 1154ft 75kts
15-Mar-20 14:30 34.427361 -119.859423 90 143ft 81kts
15-Mar-20 14:31 34.428452 -119.845540 65 16ft 19kts
15-Mar-20 14:32 34.429740 -119.842296 65 16ft 47kts
15-Mar-20 14:33 34.431818 -119.837922 164 16ft 0kts

Navigation Log

Ident Type
Flight plan parsing failed, navigation log unavailable